Aikomaru — JD4211 — position and weather

sailwx.info

Track history (hours):
 
Tides and Currents Weather Stations Pressure Air Temp Water Temp Dewpoint Dewpoint Depression Visibility Wind Speed Wind Dir Waves Ship Positions

Aikomaru

Last reported at 2018-Jun-19 00:15 UTC. Time now 2018-Jun-19 02:41 UTC.
Position N 35°37' E 139°48'.

Length 65 m; draft 4.5 m.

Type: Tanker. MMSI: 431009737.

Date/timePositionNaut miles runAvg speedWind from/ knotsBaromVisibWave heightAir tempDewpointWater temp
2018-Jun-19 00:15N 35°37' E 139°48'0 0.1
2018-Jun-18 22:50N 35°36' E 139°48'2 6.6
2018-Jun-18 22:30N 35°34' E 139°49'4 8.0
2018-Jun-18 21:59N 35°30' E 139°47'2 3.6
2018-Jun-18 21:30N 35°31' E 139°45'0 0.0
2018-Jun-18 07:09N 35°31' E 139°45'0 1.3
2018-Jun-18 07:01N 35°31' E 139°45'510.6
2018-Jun-18 06:30N 35°30' E 139°51'7 1.2
2018-Jun-18 00:34N 35°37' E 139°48'0 4.0
2018-Jun-18 00:30N 35°36' E 139°48'0 0.0
2018-Jun-18 00:00N 35°36' E 139°48'0 0.0
2018-Jun-17 23:10N 35°36' E 139°48'0 0.4
2018-Jun-17 23:00N 35°36' E 139°48'5 9.8
2018-Jun-17 22:31N 35°32' E 139°49'4 7.3
2018-Jun-17 22:00N 35°31' E 139°45'0 0.0
2018-Jun-16 09:37N 35°31' E 139°45'0 0.6
2018-Jun-16 09:31N 35°31' E 139°45'5 8.0
2018-Jun-16 08:56N 35°33' E 139°50'511.4
2018-Jun-16 08:30N 35°38' E 139°50'0 0.0
2018-Jun-16 07:34N 35°38' E 139°50'0 0.1
2018-Jun-16 07:31N 35°38' E 139°50'2 2.5
2018-Jun-16 06:48N 35°36' E 139°51'2 7.3
2018-Jun-16 06:29N 35°37' E 139°48'0 0.1
2018-Jun-16 04:37N 35°36' E 139°48'1 5.8
2018-Jun-16 04:27N 35°35' E 139°48'4 9.6
2018-Jun-16 03:59N 35°31' E 139°49'3 6.8
2018-Jun-16 03:30N 35°31' E 139°45'0 0.1
2018-Jun-16 03:00N 35°31' E 139°45'0 0.0
2018-Jun-15 02:34N 35°31' E 139°45'0 1.0
2018-Jun-15 02:31N 35°31' E 139°45'4 7.9
2018-Jun-15 02:00N 35°30' E 139°49'4 1.1
2018-Jun-14 22:37N 35°30' E 139°54'111.6
2018-Jun-14 22:30N 35°30' E 139°52'611.8
2018-Jun-14 22:00N 35°30' E 139°45'1 0.0
2018-Jun-14 02:07N 35°31' E 139°45'0 0.6
2018-Jun-14 02:00N 35°31' E 139°45'5 8.4
2018-Jun-14 01:28N 35°33' E 139°50'5 3.5
2018-Jun-14 00:00N 35°38' E 139°50'4 7.2
2018-Jun-13 23:28N 35°34' E 139°50'5 9.6
2018-Jun-13 23:00N 35°30' E 139°47'2 3.7
2018-Jun-13 22:30N 35°31' E 139°45'0 0.0
2018-Jun-13 08:41N 35°31' E 139°45'0 2.1
2018-Jun-13 08:30N 35°31' E 139°45'4 8.8
2018-Jun-13 08:00N 35°33' E 139°50'4 2.2
2018-Jun-13 06:04N 35°36' E 139°48'111.5
2018-Jun-13 05:58N 35°35' E 139°47'5 9.8
2018-Jun-13 05:30N 35°31' E 139°49'612.1
2018-Jun-13 05:00N 35°27' E 139°44'5 9.4
2018-Jun-13 04:31N 35°24' E 139°39'0 0.1
2018-Jun-13 01:14N 35°24' E 139°38'1 2.5
2018-Jun-13 01:01N 35°24' E 139°39'0 0.1
2018-Jun-13 00:30N 35°24' E 139°39'3 5.9
2018-Jun-13 00:01N 35°24' E 139°42'713.3
2018-Jun-12 23:31N 35°30' E 139°47'2 0.2
2018-Jun-12 09:09N 35°31' E 139°45'0 0.0
2018-Jun-12 09:00N 35°31' E 139°45'1 1.2
2018-Jun-12 08:31N 35°31' E 139°45'1 2.1
2018-Jun-12 08:01N 35°30' E 139°44'0 0.0
2018-Jun-12 07:31N 35°30' E 139°44'0 0.0
2018-Jun-12 07:01N 35°30' E 139°44'0 0.5
2018-Jun-12 06:31N 35°30' E 139°44'5 8.6
2018-Jun-12 05:55N 35°32' E 139°50'410.4
2018-Jun-12 05:30N 35°36' E 139°48'0 0.1
2018-Jun-12 04:55N 35°36' E 139°48'0 0.0
2018-Jun-12 04:30N 35°36' E 139°48'2 2.4
2018-Jun-12 03:36N 35°38' E 139°50'0 0.0
2018-Jun-12 03:24N 35°38' E 139°50'0 0.0
2018-Jun-12 03:00N 35°38' E 139°50'5 9.6
2018-Jun-12 02:30N 35°33' E 139°50'612.0
2018-Jun-12 02:00N 35°28' E 139°45'4 7.9
2018-Jun-12 01:31N 35°28' E 139°40'0 0.0
2018-Jun-12 01:01N 35°28' E 139°40'0 0.0
2018-Jun-12 00:31N 35°28' E 139°40'0 0.0
2018-Jun-12 00:01N 35°28' E 139°40'0 0.0
2018-Jun-11 23:31N 35°28' E 139°40'0 0.9
2018-Jun-11 23:00N 35°28' E 139°41'4 8.3
2018-Jun-11 22:31N 35°31' E 139°45'0 0.0
2018-Jun-11 05:29N 35°31' E 139°45'0 1.0
2018-Jun-11 05:00N 35°31' E 139°45'4 8.0
2018-Jun-11 04:27N 35°34' E 139°49'4 4.4
2018-Jun-11 03:36N 35°37' E 139°47'0 0.0
2018-Jun-11 03:17N 35°37' E 139°47'0 0.0
2018-Jun-11 02:37N 35°37' E 139°47'0 0.0
2018-Jun-11 02:27N 35°37' E 139°47'0 0.0
2018-Jun-11 01:11N 35°37' E 139°47'0 0.0
2018-Jun-11 01:00N 35°37' E 139°47'1 1.7
2018-Jun-11 00:26N 35°36' E 139°48'0 0.0
2018-Jun-10 23:47N 35°36' E 139°48'0 0.0
2018-Jun-10 23:30N 35°36' E 139°48'3 6.8
2018-Jun-10 23:00N 35°33' E 139°50'4 8.6
2018-Jun-10 22:30N 35°30' E 139°46'1 2.1
2018-Jun-10 22:00N 35°31' E 139°45'0 0.0
2018-Jun-09 10:51N 35°31' E 139°45'2 4.7
2018-Jun-09 10:30N 35°30' E 139°47'611.7
2018-Jun-09 10:00N 35°30' E 139°54'5 2.0
2018-Jun-09 07:23N 35°30' E 140°00'7 5.9
2018-Jun-09 06:17N 35°34' E 139°54'412.5
2018-Jun-09 05:57N 35°37' E 139°50'1 0.9
2018-Jun-09 04:54N 35°38' E 139°50'1 2.0
2018-Jun-09 04:29N 35°37' E 139°49'1 2.7
2018-Jun-09 03:57N 35°36' E 139°51'  
Track history (hours):
 
Tides and Currents Weather Stations Pressure Air Temp Water Temp Dewpoint Dewpoint Depression Visibility Wind Speed Wind Dir Waves Ship Positions

Aikomaru

Last reported at 2018-Jun-19 00:15 UTC. Time now 2018-Jun-19 02:41 UTC.
Position N 35°37' E 139°48'.

Length 65 m; draft 4.5 m.

Type: Tanker. MMSI: 431009737.

Date/timePositionNaut miles runAvg speedWind from/ knotsBaromVisibWave heightAir tempDewpointWater temp
2018-Jun-19 00:15N 35°37' E 139°48'0 0.1
2018-Jun-18 22:50N 35°36' E 139°48'2 6.6
2018-Jun-18 22:30N 35°34' E 139°49'4 8.0
2018-Jun-18 21:59N 35°30' E 139°47'2 3.6
2018-Jun-18 21:30N 35°31' E 139°45'0 0.0
2018-Jun-18 07:09N 35°31' E 139°45'0 1.3
2018-Jun-18 07:01N 35°31' E 139°45'510.6
2018-Jun-18 06:30N 35°30' E 139°51'7 1.2
2018-Jun-18 00:34N 35°37' E 139°48'0 4.0
2018-Jun-18 00:30N 35°36' E 139°48'0 0.0
2018-Jun-18 00:00N 35°36' E 139°48'0 0.0
2018-Jun-17 23:10N 35°36' E 139°48'0 0.4
2018-Jun-17 23:00N 35°36' E 139°48'5 9.8
2018-Jun-17 22:31N 35°32' E 139°49'4 7.3
2018-Jun-17 22:00N 35°31' E 139°45'0 0.0
2018-Jun-16 09:37N 35°31' E 139°45'0 0.6
2018-Jun-16 09:31N 35°31' E 139°45'5 8.0
2018-Jun-16 08:56N 35°33' E 139°50'511.4
2018-Jun-16 08:30N 35°38' E 139°50'0 0.0
2018-Jun-16 07:34N 35°38' E 139°50'0 0.1
2018-Jun-16 07:31N 35°38' E 139°50'2 2.5
2018-Jun-16 06:48N 35°36' E 139°51'2 7.3
2018-Jun-16 06:29N 35°37' E 139°48'0 0.1
2018-Jun-16 04:37N 35°36' E 139°48'1 5.8
2018-Jun-16 04:27N 35°35' E 139°48'4 9.6
2018-Jun-16 03:59N 35°31' E 139°49'3 6.8
2018-Jun-16 03:30N 35°31' E 139°45'0 0.1
2018-Jun-16 03:00N 35°31' E 139°45'0 0.0
2018-Jun-15 02:34N 35°31' E 139°45'0 1.0
2018-Jun-15 02:31N 35°31' E 139°45'4 7.9
2018-Jun-15 02:00N 35°30' E 139°49'4 1.1
2018-Jun-14 22:37N 35°30' E 139°54'111.6
2018-Jun-14 22:30N 35°30' E 139°52'611.8
2018-Jun-14 22:00N 35°30' E 139°45'1 0.0
2018-Jun-14 02:07N 35°31' E 139°45'0 0.6
2018-Jun-14 02:00N 35°31' E 139°45'5 8.4
2018-Jun-14 01:28N 35°33' E 139°50'5 3.5
2018-Jun-14 00:00N 35°38' E 139°50'4 7.2
2018-Jun-13 23:28N 35°34' E 139°50'5 9.6
2018-Jun-13 23:00N 35°30' E 139°47'2 3.7
2018-Jun-13 22:30N 35°31' E 139°45'0 0.0
2018-Jun-13 08:41N 35°31' E 139°45'0 2.1
2018-Jun-13 08:30N 35°31' E 139°45'4 8.8
2018-Jun-13 08:00N 35°33' E 139°50'4 2.2
2018-Jun-13 06:04N 35°36' E 139°48'111.5
2018-Jun-13 05:58N 35°35' E 139°47'5 9.8
2018-Jun-13 05:30N 35°31' E 139°49'612.1
2018-Jun-13 05:00N 35°27' E 139°44'5 9.4
2018-Jun-13 04:31N 35°24' E 139°39'0 0.1
2018-Jun-13 01:14N 35°24' E 139°38'1 2.5
2018-Jun-13 01:01N 35°24' E 139°39'0 0.1
2018-Jun-13 00:30N 35°24' E 139°39'3 5.9
2018-Jun-13 00:01N 35°24' E 139°42'713.3
2018-Jun-12 23:31N 35°30' E 139°47'2 0.2
2018-Jun-12 09:09N 35°31' E 139°45'0 0.0
2018-Jun-12 09:00N 35°31' E 139°45'1 1.2
2018-Jun-12 08:31N 35°31' E 139°45'1 2.1
2018-Jun-12 08:01N 35°30' E 139°44'0 0.0
2018-Jun-12 07:31N 35°30' E 139°44'0 0.0
2018-Jun-12 07:01N 35°30' E 139°44'0 0.5
2018-Jun-12 06:31N 35°30' E 139°44'5 8.6
2018-Jun-12 05:55N 35°32' E 139°50'410.4
2018-Jun-12 05:30N 35°36' E 139°48'0 0.1
2018-Jun-12 04:55N 35°36' E 139°48'0 0.0
2018-Jun-12 04:30N 35°36' E 139°48'2 2.4
2018-Jun-12 03:36N 35°38' E 139°50'0 0.0
2018-Jun-12 03:24N 35°38' E 139°50'0 0.0
2018-Jun-12 03:00N 35°38' E 139°50'5 9.6
2018-Jun-12 02:30N 35°33' E 139°50'612.0
2018-Jun-12 02:00N 35°28' E 139°45'4 7.9
2018-Jun-12 01:31N 35°28' E 139°40'0 0.0
2018-Jun-12 01:01N 35°28' E 139°40'0 0.0
2018-Jun-12 00:31N 35°28' E 139°40'0 0.0
2018-Jun-12 00:01N 35°28' E 139°40'0 0.0
2018-Jun-11 23:31N 35°28' E 139°40'0 0.9
2018-Jun-11 23:00N 35°28' E 139°41'4 8.3
2018-Jun-11 22:31N 35°31' E 139°45'0 0.0
2018-Jun-11 05:29N 35°31' E 139°45'0 1.0
2018-Jun-11 05:00N 35°31' E 139°45'4 8.0
2018-Jun-11 04:27N 35°34' E 139°49'4 4.4
2018-Jun-11 03:36N 35°37' E 139°47'0 0.0
2018-Jun-11 03:17N 35°37' E 139°47'0 0.0
2018-Jun-11 02:37N 35°37' E 139°47'0 0.0
2018-Jun-11 02:27N 35°37' E 139°47'0 0.0
2018-Jun-11 01:11N 35°37' E 139°47'0 0.0
2018-Jun-11 01:00N 35°37' E 139°47'1 1.7
2018-Jun-11 00:26N 35°36' E 139°48'0 0.0
2018-Jun-10 23:47N 35°36' E 139°48'0 0.0
2018-Jun-10 23:30N 35°36' E 139°48'3 6.8
2018-Jun-10 23:00N 35°33' E 139°50'4 8.6
2018-Jun-10 22:30N 35°30' E 139°46'1 2.1
2018-Jun-10 22:00N 35°31' E 139°45'0 0.0
2018-Jun-09 10:51N 35°31' E 139°45'2 4.7
2018-Jun-09 10:30N 35°30' E 139°47'611.7
2018-Jun-09 10:00N 35°30' E 139°54'5 2.0
2018-Jun-09 07:23N 35°30' E 140°00'7 5.9
2018-Jun-09 06:17N 35°34' E 139°54'412.5
2018-Jun-09 05:57N 35°37' E 139°50'1 0.9
2018-Jun-09 04:54N 35°38' E 139°50'1 2.0
2018-Jun-09 04:29N 35°37' E 139°49'1 2.7
2018-Jun-09 03:57N 35°36' E 139°51'  

Dump ship's entire track history